Time;durP1;ratioP1;P1;durP2;ratioP2;P2;SDS_P1;SDS_P2;PMS_P1;PMS_P2;Temp;Humidity;BMP_temperature;BMP_pressure;BME280_temperature;BME280_humidity;BME280_pressure;Samples;Min_cycle;Max_cycle;Signal;HPM_P1;HPM_P2
2020/12/18 14:48:00;;;;;;;;;;;;;;;19.50;66.32;102073.84;5047360;27;74627;-50
2020/12/18 14:50:26;;;;;;;;;;;;;;;19.05;68.02;102069.31;5019386;28;19941;-59
2020/12/18 14:52:52;;;;;;;;;;;;;;;19.00;67.73;102068.44;5025688;28;19917;-59
2020/12/18 15:12:28;;;;;;;65.43;18.92;;;;;;;20.22;62.79;102076.41;5041813;27;76934;-49
2020/12/18 15:14:54;;;;;;;58.17;20.50;;;;;;;20.26;62.44;102084.47;5030612;28;20041;-45
2020/12/18 15:17:20;;;;;;;45.78;20.05;;;;;;;20.35;62.87;102075.53;5034391;28;20049;-49
2020/12/18 15:19:46;;;;;;;55.17;20.88;;;;;;;20.45;62.30;102071.91;5030209;28;63194;-47
2020/12/18 15:22:12;;;;;;;66.13;21.15;;;;;;;20.43;62.68;102076.38;5036671;28;20033;-57
2020/12/18 15:24:39;;;;;;;51.35;20.55;;;;;;;20.48;62.50;102076.41;5040274;28;20398;-52
2020/12/18 15:27:05;;;;;;;62.75;22.60;;;;;;;20.52;62.33;102075.47;5033635;28;20046;-61
2020/12/18 15:32:41;;;;;;;68.97;21.25;;;;;;;19.21;66.19;102074.72;5106566;27;20401;-65
2020/12/18 15:35:07;;;;;;;59.50;22.10;;;;;;;18.99;67.46;102076.44;5025220;28;20406;-66
2020/12/18 15:37:34;;;;;;;50.80;20.80;;;;;;;18.95;67.18;102080.91;5005824;28;20109;-67
2020/12/18 15:40:00;;;;;;;56.88;19.90;;;;;;;18.92;67.38;102072.88;5024284;28;20037;-68
2020/12/18 15:42:26;;;;;;;67.28;19.92;;;;;;;18.96;66.69;102079.13;5039267;28;20054;-68
2020/12/18 15:44:52;;;;;;;77.30;21.35;;;;;;;18.97;67.28;102070.22;5038687;28;20033;-64
2020/12/18 15:47:18;;;;;;;61.45;19.42;;;;;;;18.91;67.54;102076.44;5040718;28;20038;-64
2020/12/18 15:49:44;;;;;;;74.43;20.63;;;;;;;18.88;67.57;102081.78;5041679;28;20036;-64
2020/12/18 15:52:10;;;;;;;95.57;20.50;;;;;;;18.93;67.02;102076.44;5035248;28;20051;-68
2020/12/18 15:54:37;;;;;;;79.25;19.23;;;;;;;18.95;66.61;102080.91;5023387;28;20038;-67
2020/12/18 15:57:03;;;;;;;77.70;20.45;;;;;;;18.96;67.20;102082.72;5038302;28;20561;-69
2020/12/18 15:59:29;;;;;;;66.68;18.92;;;;;;;18.96;67.38;102088.06;5025088;28;20057;-68
2020/12/18 16:01:55;;;;;;;67.88;19.05;;;;;;;18.95;67.75;102086.28;5042126;28;20032;-69
2020/12/18 16:04:21;;;;;;;63.88;18.13;;;;;;;18.90;68.12;102085.38;5044975;28;20490;-69
2020/12/18 16:06:48;;;;;;;67.97;18.17;;;;;;;18.89;67.98;102086.25;5044536;28;20112;-68
2020/12/18 16:09:14;;;;;;;54.78;16.95;;;;;;;18.87;68.03;102087.13;5041833;28;20048;-68
2020/12/18 16:11:40;;;;;;;69.43;17.42;;;;;;;18.87;67.97;102082.69;5044385;28;20041;-68
2020/12/18 16:14:06;;;;;;;62.03;17.80;;;;;;;18.84;67.87;102085.31;5041888;28;20040;-68
2020/12/18 16:16:32;;;;;;;54.92;16.98;;;;;;;18.84;68.16;102088.00;5042772;28;20025;-68
2020/12/18 16:18:58;;;;;;;45.85;16.63;;;;;;;18.84;68.11;102089.81;5042790;28;20037;-68
2020/12/18 16:21:24;;;;;;;54.47;17.75;;;;;;;18.83;68.00;102093.38;5044015;28;20040;-68
2020/12/18 16:23:51;;;;;;;62.85;16.48;;;;;;;18.84;67.73;102089.81;5039580;28;20045;-68
2020/12/18 16:26:20;;;;;;;50.15;16.88;;;;;;;18.82;68.02;102084.44;5040428;28;20037;-69
2020/12/18 16:28:46;;;;;;;44.35;17.00;;;;;;;18.83;67.99;102090.69;5042425;28;20029;-68
2020/12/18 16:31:12;;;;;;;46.80;17.58;;;;;;;18.81;67.84;102093.38;5051756;28;20045;-69
2020/12/18 16:33:38;;;;;;;47.40;15.80;;;;;;;18.81;68.08;102095.16;5063452;28;20036;-68
2020/12/18 16:36:05;;;;;;;47.33;17.08;;;;;;;18.81;68.20;102090.69;5062428;28;20041;-68
2020/12/18 16:38:31;;;;;;;36.95;15.73;;;;;;;18.81;67.95;102096.03;5027300;28;20051;-69
2020/12/18 16:40:57;;;;;;;45.22;15.48;;;;;;;18.79;68.03;102099.59;5063257;28;20032;-68
2020/12/18 16:43:24;;;;;;;37.08;14.73;;;;;;;18.78;68.17;102093.34;5050764;28;20051;-68
2020/12/18 16:45:50;;;;;;;40.55;16.30;;;;;;;18.79;68.28;102096.91;5049648;28;20037;-69
2020/12/18 16:48:16;;;;;;;39.40;16.02;;;;;;;18.76;67.98;102095.13;5031970;28;20385;-68
2020/12/18 16:50:46;;;;;;;41.08;15.63;;;;;;;18.79;68.29;102100.47;5048106;28;20041;-68
2020/12/18 16:53:12;;;;;;;44.10;15.25;;;;;;;18.75;67.91;102088.00;5015404;28;20036;-69
2020/12/18 16:55:38;;;;;;;46.13;15.90;;;;;;;18.75;68.27;102097.81;5048168;28;20037;-69
2020/12/18 16:58:04;;;;;;;31.50;14.52;;;;;;;18.74;68.04;102096.91;5032621;28;20040;-69
2020/12/18 17:00:31;;;;;;;35.42;15.02;;;;;;;18.74;68.11;102090.66;5049761;28;20021;-68
2020/12/18 17:02:57;;;;;;;29.13;14.05;;;;;;;18.71;67.94;102096.88;5049087;28;20528;-68
2020/12/18 17:05:23;;;;;;;37.28;15.00;;;;;;;18.71;68.02;102100.44;5049576;28;20025;-69
2020/12/18 17:07:49;;;;;;;39.08;15.30;;;;;;;18.70;68.09;102103.16;5029717;28;20021;-68
2020/12/18 17:10:16;;;;;;;42.58;15.20;;;;;;;18.67;67.87;102103.13;5045869;28;20478;-68
2020/12/18 17:12:42;;;;;;;37.40;13.73;;;;;;;18.68;68.11;102097.78;5046592;28;20033;-71
2020/12/18 17:15:09;;;;;;;42.60;13.85;;;;;;;18.41;62.59;102102.06;5028063;28;20040;-66
2020/12/18 17:17:35;;;;;;;50.45;12.25;;;;;;;18.03;61.58;102101.88;5030745;28;20033;-68
2020/12/18 17:20:02;;;;;;;46.80;13.60;;;;;;;17.77;60.63;102109.69;5030057;28;20068;-66
2020/12/18 17:22:29;;;;;;;47.47;12.43;;;;;;;17.73;60.96;102099.84;5015010;28;20477;-68
2020/12/18 17:24:55;;;;;;;58.47;13.23;;;;;;;17.66;60.29;102112.25;5028972;28;20021;-68
2020/12/18 17:27:24;;;;;;;36.45;12.13;;;;;;;17.59;60.37;102101.50;5048351;28;20377;-66
2020/12/18 17:29:53;;;;;;;24.55;12.18;;;;;;;17.73;60.22;102105.19;5030286;28;20033;-67
2020/12/18 17:32:20;;;;;;;42.33;12.80;;;;;;;18.08;62.04;102103.69;5030003;28;20041;-67
2020/12/18 17:34:46;;;;;;;27.35;12.52;;;;;;;18.28;63.13;102093.09;5015125;28;20029;-67
2020/12/18 17:37:13;;;;;;;63.90;14.13;;;;;;;18.42;63.19;102098.53;5012538;28;20501;-68
2020/12/18 17:39:39;;;;;;;40.30;11.68;;;;;;;18.88;62.35;102102.31;5025759;28;20045;-71
2020/12/18 17:42:05;;;;;;;35.15;11.23;;;;;;;19.13;62.45;102103.25;5027282;28;20029;-67
2020/12/18 17:44:31;;;;;;;40.65;11.00;;;;;;;19.25;62.56;102101.47;5043797;28;20048;-68
2020/12/18 17:46:57;;;;;;;29.48;11.18;;;;;;;19.34;63.07;102095.25;5005571;28;20042;-69
2020/12/18 17:49:24;;;;;;;32.30;10.48;;;;;;;19.38;63.20;102102.38;5005335;28;20069;-69
2020/12/18 17:51:53;;;;;;;36.33;10.57;;;;;;;19.65;62.71;102099.75;4985249;28;20061;-68
2020/12/18 17:54:19;;;;;;;34.97;10.55;;;;;;;19.47;63.59;102102.44;4990210;28;20451;-67
2020/12/18 17:56:46;;;;;;;29.70;11.02;;;;;;;19.50;64.44;102108.69;5002351;28;20040;-67
2020/12/18 17:59:12;;;;;;;26.10;11.70;;;;;;;19.69;64.62;102114.06;5021447;28;20041;-66
2020/12/18 18:01:38;;;;;;;43.95;12.85;;;;;;;19.56;64.95;102110.47;5006644;28;20505;-65
2020/12/18 18:04:04;;;;;;;30.77;11.40;;;;;;;19.51;65.24;102112.25;5026896;28;20478;-65
2020/12/18 18:06:31;;;;;;;25.40;10.85;;;;;;;19.61;65.42;102111.38;5005624;28;20032;-65
2020/12/18 18:08:57;;;;;;;40.83;11.27;;;;;;;19.55;65.62;102113.16;5024800;28;20029;-66
2020/12/18 18:11:24;;;;;;;24.38;11.00;;;;;;;19.56;66.13;102106.91;5010377;28;20096;-67
2020/12/18 18:13:53;;;;;;;34.83;12.85;;;;;;;19.55;66.19;102116.75;5010302;28;20029;-64
2020/12/18 18:16:19;;;;;;;38.60;11.57;;;;;;;19.56;66.50;102113.16;5019860;28;20059;-67
2020/12/18 18:18:47;;;;;;;31.13;11.48;;;;;;;19.59;66.37;102105.13;5048248;28;20031;-65
2020/12/18 18:21:13;;;;;;;26.50;10.00;;;;;;;19.56;66.46;102114.97;5006733;28;20044;-64
2020/12/18 18:23:39;;;;;;;23.83;10.50;;;;;;;19.58;66.24;102118.50;5033402;28;20028;-66
2020/12/18 18:26:06;;;;;;;26.55;10.50;;;;;;;19.58;66.64;102114.03;5036496;28;20615;-68
2020/12/18 18:28:32;;;;;;;28.20;10.90;;;;;;;19.55;66.67;102115.84;5040746;28;20036;-67
2020/12/18 18:30:58;;;;;;;30.02;11.18;;;;;;;19.61;66.91;102118.53;5025872;28;20385;-68
2020/12/18 18:33:24;;;;;;;29.77;11.07;;;;;;;19.67;66.65;102121.22;4998039;28;20034;-68
2020/12/18 18:35:51;;;;;;;24.23;10.20;;;;;;;19.67;66.64;102119.41;5006393;28;20061;-67
2020/12/18 18:38:17;;;;;;;34.72;10.63;;;;;;;19.71;66.82;102126.56;4978701;28;20045;-65
2020/12/18 18:40:43;;;;;;;26.65;10.10;;;;;;;19.65;66.91;102123.88;4989807;28;20037;-65
2020/12/18 18:43:10;;;;;;;25.67;10.57;;;;;;;19.72;66.91;102120.31;4969467;28;20046;-68
2020/12/18 18:45:37;;;;;;;29.77;10.63;;;;;;;19.73;66.95;102119.41;4972056;28;20041;-66
2020/12/18 18:48:03;;;;;;;28.73;10.77;;;;;;;19.77;66.86;102120.28;4974829;28;20037;-67
2020/12/18 18:50:30;;;;;;;19.15;9.40;;;;;;;19.73;66.79;102129.25;4972675;28;20037;-67
2020/12/18 18:52:56;;;;;;;21.60;9.23;;;;;;;19.78;66.90;102124.75;4994874;28;20034;-68
2020/12/18 18:55:23;;;;;;;24.52;9.15;;;;;;;19.79;67.22;102121.19;4997440;28;20037;-74
2020/12/18 18:57:49;;;;;;;26.85;10.07;;;;;;;19.81;67.18;102130.13;4972416;28;20053;-68
2020/12/18 19:00:15;;;;;;;19.25;8.27;;;;;;;19.84;67.12;102125.66;4990108;28;20033;-69
2020/12/18 19:02:41;;;;;;;23.63;9.63;;;;;;;19.82;67.25;102131.94;4990428;28;20498;-69
2020/12/18 19:05:08;;;;;;;21.85;9.48;;;;;;;19.82;67.51;102138.16;4989802;28;20037;-69
2020/12/18 19:07:34;;;;;;;23.08;9.60;;;;;;;19.85;67.39;102135.50;5005587;28;20041;-69
2020/12/18 19:10:01;;;;;;;27.58;9.13;;;;;;;19.88;67.58;102146.22;4990275;28;20030;-68
2020/12/18 19:12:27;;;;;;;34.65;10.07;;;;;;;19.92;67.72;102144.41;4973472;28;20049;-66
2020/12/18 19:14:53;;;;;;;23.80;9.45;;;;;;;19.97;67.72;102139.03;5007058;28;20048;-69
2020/12/18 19:17:20;;;;;;;25.17;8.43;;;;;;;19.96;67.51;102145.28;4988392;28;20034;-68
2020/12/18 19:19:46;;;;;;;21.20;8.80;;;;;;;20.00;67.77;102149.78;5006512;28;20026;-66
2020/12/18 19:22:12;;;;;;;17.85;8.60;;;;;;;19.98;67.62;102144.41;5008035;28;20021;-66
2020/12/18 19:24:39;;;;;;;23.92;8.77;;;;;;;19.97;67.71;102152.44;5006866;28;20041;-66
2020/12/18 19:27:11;;;;;;;17.33;8.90;;;;;;;20.03;67.79;102147.97;5006887;28;20040;-67
2020/12/18 19:29:38;;;;;;;15.00;8.15;;;;;;;20.00;67.69;102148.00;4971977;28;20034;-67
2020/12/18 19:32:08;;;;;;;25.40;8.25;;;;;;;19.97;67.90;102152.44;5005580;28;20072;-66
2020/12/18 19:34:35;;;;;;;16.02;7.25;;;;;;;20.04;67.98;102144.41;4989282;28;20033;-66
2020/12/18 19:37:02;;;;;;;17.30;8.95;;;;;;;20.01;68.21;102135.47;4990287;28;20034;-67
2020/12/18 19:39:29;;;;;;;17.75;7.20;;;;;;;19.96;68.13;102140.81;5005706;28;20030;-66
2020/12/18 19:41:55;;;;;;;16.40;7.35;;;;;;;19.96;68.06;102146.19;5006712;28;20026;-67
2020/12/18 19:44:21;;;;;;;16.90;7.45;;;;;;;19.98;68.39;102141.72;5007460;28;20022;-66
2020/12/18 19:46:47;;;;;;;11.63;6.30;;;;;;;19.96;68.03;102140.81;5007438;28;20508;-67
2020/12/18 19:49:13;;;;;;;13.75;6.72;;;;;;;19.94;68.48;102137.28;5006726;28;20541;-66
2020/12/18 19:51:40;;;;;;;18.65;7.60;;;;;;;19.98;68.18;102139.06;4999317;28;20041;-68
2020/12/18 19:54:06;;;;;;;15.05;7.15;;;;;;;20.04;68.13;102143.50;4984160;28;20430;-68
2020/12/18 19:56:34;;;;;;;21.40;7.70;;;;;;;20.03;68.07;102145.28;5000184;28;20048;-67
2020/12/18 19:59:00;;;;;;;17.25;6.90;;;;;;;19.98;67.98;102146.19;4984407;28;20753;-69
2020/12/18 20:01:26;;;;;;;10.85;6.53;;;;;;;19.96;68.31;102145.28;4972106;28;20082;-67
2020/12/18 20:03:53;;;;;;;13.43;6.82;;;;;;;19.94;68.28;102149.78;4988254;28;20490;-69
2020/12/18 20:06:19;;;;;;;24.77;7.10;;;;;;;20.05;68.05;102151.56;4970305;28;20667;-67
2020/12/18 20:08:48;;;;;;;24.17;7.32;;;;;;;20.04;68.13;102148.88;5003704;28;20038;-71
2020/12/18 20:11:30;;;;;;;19.40;7.38;;;;;;;20.04;68.08;102148.88;4988390;28;20030;-68
2020/12/18 20:13:56;;;;;;;17.83;6.93;;;;;;;20.09;68.24;102155.09;5006779;28;20053;-69
2020/12/18 20:16:22;;;;;;;16.02;6.82;;;;;;;20.06;68.55;102152.44;5007597;28;20025;-68
2020/12/18 20:18:52;;;;;;;22.55;6.43;;;;;;;20.03;68.52;102152.44;5010493;28;20046;-68
2020/12/18 20:21:22;;;;;;;22.67;6.75;;;;;;;20.04;68.55;102155.13;5009515;28;20045;-68
2020/12/18 20:23:49;;;;;;;19.45;6.63;;;;;;;20.01;68.64;102156.94;5010865;28;20629;-65
2020/12/18 20:26:15;;;;;;;14.23;6.70;;;;;;;19.99;68.73;102151.56;4976946;28;20041;-66
2020/12/18 20:28:42;;;;;;;14.80;6.85;;;;;;;19.98;68.89;102159.59;4988822;28;20428;-67
2020/12/18 20:31:12;;;;;;;23.67;7.30;;;;;;;19.94;68.52;102155.16;5008012;28;20383;-67
2020/12/18 20:33:38;;;;;;;23.25;6.78;;;;;;;19.92;68.49;102154.25;5009204;28;20121;-67
2020/12/18 20:36:14;;;;;;;21.23;6.75;;;;;;;19.93;68.72;102156.94;5008016;28;20495;-67
2020/12/18 20:38:41;;;;;;;19.23;6.18;;;;;;;19.90;68.84;102148.88;5009740;28;20541;-67
2020/12/18 20:41:08;;;;;;;19.38;6.10;;;;;;;19.91;68.65;102153.34;5008934;28;20029;-67
2020/12/18 20:43:34;;;;;;;19.05;6.45;;;;;;;19.92;68.65;102155.13;5008795;28;20042;-68
2020/12/18 20:46:00;;;;;;;25.80;5.97;;;;;;;20.00;68.23;102153.34;5007889;28;20426;-68
2020/12/18 20:48:26;;;;;;;18.10;6.57;;;;;;;19.88;68.12;102150.69;5010127;28;20057;-67
2020/12/18 20:50:53;;;;;;;14.88;6.47;;;;;;;20.08;67.52;102156.03;4991796;28;20033;-68
2020/12/18 20:53:21;;;;;;;19.23;6.45;;;;;;;20.20;65.66;102162.28;5010381;28;20045;-68
2020/12/18 20:55:47;;;;;;;31.30;6.45;;;;;;;20.20;65.03;102156.91;5009907;28;20026;-67
2020/12/18 20:58:13;;;;;;;13.13;5.90;;;;;;;20.22;64.57;102163.13;5010162;28;20149;-68
2020/12/18 21:00:39;;;;;;;14.43;6.50;;;;;;;20.23;64.23;102164.94;5009707;28;20398;-68
2020/12/18 21:03:05;;;;;;;14.68;5.93;;;;;;;20.22;63.49;102164.94;5009697;28;20029;-68
2020/12/18 21:05:31;;;;;;;13.77;6.60;;;;;;;20.20;63.32;102164.94;5009609;28;20041;-68
2020/12/18 21:07:57;;;;;;;29.60;5.43;;;;;;;20.20;62.93;102156.91;5009168;28;20022;-68
2020/12/18 21:10:25;;;;;;;11.82;5.38;;;;;;;20.15;62.95;102155.13;4992990;28;20045;-68
2020/12/18 21:12:51;;;;;;;24.98;7.30;;;;;;;20.02;62.96;102161.41;5008025;28;20050;-68
2020/12/18 21:15:17;;;;;;;10.48;4.85;;;;;;;19.97;62.54;102150.66;5007926;28;20057;-68
2020/12/18 21:17:45;;;;;;;10.18;5.65;;;;;;;19.97;62.40;102155.13;5010696;28;20030;-68
2020/12/18 21:20:11;;;;;;;11.05;4.88;;;;;;;19.96;62.17;102153.34;5010268;28;20034;-68
2020/12/18 21:22:38;;;;;;;15.50;6.18;;;;;;;19.91;62.24;102148.00;5010011;28;20463;-68
2020/12/18 21:25:04;;;;;;;12.98;5.50;;;;;;;19.92;61.85;102152.47;5010643;28;20037;-67
2020/12/18 21:27:31;;;;;;;12.63;5.63;;;;;;;19.87;61.71;102143.53;5009798;28;20045;-68
2020/12/18 21:29:57;;;;;;;9.13;5.55;;;;;;;19.87;61.26;102149.78;5010354;28;20060;-68
2020/12/18 21:32:23;;;;;;;11.07;5.30;;;;;;;19.84;61.48;102141.75;5008269;28;20042;-68
2020/12/18 21:34:49;;;;;;;10.20;5.00;;;;;;;19.83;61.18;102145.31;5024615;28;20034;-68
2020/12/18 21:37:16;;;;;;;13.13;5.60;;;;;;;19.82;60.77;102146.19;5010277;28;20471;-68
2020/12/18 21:39:42;;;;;;;15.45;5.25;;;;;;;19.81;60.67;102144.44;5008645;28;20018;-68
2020/12/18 21:42:08;;;;;;;7.03;4.57;;;;;;;19.80;60.90;102145.31;5010277;28;20022;-68
2020/12/18 21:44:34;;;;;;;7.38;4.90;;;;;;;19.78;60.63;102146.19;5009169;28;20380;-68
2020/12/18 21:47:00;;;;;;;10.07;4.88;;;;;;;19.76;60.45;102139.94;5008905;28;20038;-68
2020/12/18 21:49:27;;;;;;;13.13;4.80;;;;;;;19.72;60.48;102147.09;5009529;28;20037;-68
2020/12/18 21:51:53;;;;;;;7.78;4.25;;;;;;;19.72;60.33;102143.53;5009355;28;20033;-68
2020/12/18 21:54:22;;;;;;;9.48;5.18;;;;;;;19.71;60.27;102139.94;5009211;28;20037;-68
2020/12/18 21:56:48;;;;;;;12.07;4.43;;;;;;;19.70;59.96;102142.63;5010105;28;20052;-67
2020/12/18 21:59:14;;;;;;;6.65;4.28;;;;;;;19.67;59.84;102138.19;5009260;28;20029;-68
2020/12/18 22:01:41;;;;;;;9.65;4.38;;;;;;;19.67;59.54;102131.91;5009671;28;20042;-68
2020/12/18 22:04:07;;;;;;;5.68;4.50;;;;;;;19.64;59.95;102135.47;5009653;28;20053;-68
2020/12/18 22:06:33;;;;;;;9.00;4.40;;;;;;;19.63;59.57;102132.78;5009302;28;20037;-67
2020/12/18 22:09:03;;;;;;;6.30;4.30;;;;;;;19.62;59.27;102129.25;5009651;28;20034;-67
2020/12/18 22:11:31;;;;;;;6.80;4.55;;;;;;;19.59;59.78;102131.03;5008988;28;20042;-68
2020/12/18 22:13:57;;;;;;;7.70;4.78;;;;;;;19.58;59.66;102135.47;5024229;28;20038;-68
2020/12/18 22:16:23;;;;;;;10.52;4.82;;;;;;;19.56;59.44;102131.91;5009034;28;20463;-67
2020/12/18 22:18:49;;;;;;;12.70;4.35;;;;;;;19.57;59.14;102135.47;5009431;28;20033;-67
2020/12/18 22:21:15;;;;;;;14.68;4.53;;;;;;;19.55;59.37;102131.91;5009337;28;20018;-67
2020/12/18 22:23:42;;;;;;;5.80;4.28;;;;;;;19.55;59.01;102132.81;5009499;28;20033;-68
2020/12/18 22:26:08;;;;;;;7.35;4.47;;;;;;;19.52;59.33;102138.16;5008473;28;20380;-67
2020/12/18 22:28:35;;;;;;;5.82;3.97;;;;;;;19.51;58.85;102136.38;5007676;28;20034;-67
2020/12/18 22:31:01;;;;;;;7.95;3.60;;;;;;;19.49;59.16;102136.34;5006916;28;20037;-68
2020/12/18 22:33:28;;;;;;;8.98;4.38;;;;;;;19.49;58.55;102144.41;5009309;28;20042;-68
2020/12/18 22:35:54;;;;;;;9.02;5.05;;;;;;;19.49;58.84;102138.19;5008469;28;20049;-67
2020/12/18 22:38:21;;;;;;;11.65;4.78;;;;;;;19.46;58.62;102147.09;5007907;28;20038;-68
2020/12/18 22:40:47;;;;;;;5.65;3.63;;;;;;;19.46;59.15;102148.88;5008408;28;20041;-68
2020/12/18 22:43:13;;;;;;;12.02;4.75;;;;;;;19.44;59.01;102138.09;5008033;28;20061;-67
2020/12/18 22:45:39;;;;;;;7.40;4.13;;;;;;;19.44;58.78;102139.88;5007966;28;20040;-68
2020/12/18 22:48:05;;;;;;;9.15;3.80;;;;;;;19.43;58.48;102136.31;5008337;28;20025;-68
2020/12/18 22:50:32;;;;;;;9.05;3.97;;;;;;;19.42;58.34;102136.34;5008484;28;20239;-68
2020/12/18 22:52:58;;;;;;;5.95;4.10;;;;;;;19.43;58.29;102133.63;5007306;28;20037;-67
2020/12/18 22:55:24;;;;;;;7.13;4.10;;;;;;;19.41;58.69;102140.81;5007590;28;20068;-67
2020/12/18 22:57:50;;;;;;;6.50;4.10;;;;;;;19.39;58.46;102141.69;5007181;28;20045;-67
2020/12/18 23:00:18;;;;;;;7.90;4.03;;;;;;;19.37;58.45;102147.03;5007868;28;20487;-68
2020/12/18 23:02:44;;;;;;;7.38;4.20;;;;;;;19.36;58.41;102141.69;4989923;28;20475;-68
2020/12/18 23:05:11;;;;;;;7.53;3.83;;;;;;;19.37;58.17;102141.66;5007851;28;20029;-67
2020/12/18 23:07:37;;;;;;;9.50;3.55;;;;;;;19.35;58.79;102138.13;5008221;28;20130;-67
2020/12/18 23:10:05;;;;;;;6.18;3.72;;;;;;;19.36;58.32;102139.00;5008388;28;20498;-68
2020/12/18 23:12:31;;;;;;;5.68;3.30;;;;;;;19.33;58.38;102131.84;5008482;28;20383;-67
2020/12/18 23:14:57;;;;;;;10.15;3.50;;;;;;;19.32;58.48;102134.53;5007141;28;20049;-68
2020/12/18 23:17:23;;;;;;;7.65;3.97;;;;;;;19.33;58.29;102133.63;5007220;28;20032;-67
2020/12/18 23:19:49;;;;;;;6.55;3.22;;;;;;;19.30;58.20;102126.47;5008191;28;20033;-68
2020/12/18 23:22:15;;;;;;;4.82;3.40;;;;;;;19.30;58.63;102131.84;5008828;28;20038;-67
2020/12/18 23:24:42;;;;;;;7.22;3.20;;;;;;;19.28;58.25;102127.38;5007233;28;20030;-67
2020/12/18 23:27:08;;;;;;;5.43;3.45;;;;;;;19.29;57.76;102130.06;5008488;28;20479;-68
2020/12/18 23:29:34;;;;;;;6.75;3.38;;;;;;;19.28;58.31;102122.03;5006514;28;20034;-67
2020/12/18 23:32:00;;;;;;;3.42;2.80;;;;;;;19.29;57.95;102123.81;5007773;28;20045;-67
2020/12/18 23:34:26;;;;;;;4.65;3.28;;;;;;;19.27;58.38;102115.78;5007771;28;20399;-67
2020/12/18 23:36:53;;;;;;;4.13;2.88;;;;;;;19.27;57.98;102125.59;5007922;28;20029;-68
2020/12/18 23:39:20;;;;;;;3.63;2.88;;;;;;;19.25;58.69;102124.69;5007121;28;20060;-68
2020/12/18 23:41:47;;;;;;;5.30;3.25;;;;;;;19.28;58.23;102138.09;5007378;28;20033;-68
2020/12/18 23:44:13;;;;;;;5.72;3.05;;;;;;;19.26;58.06;102130.06;5038957;28;20022;-68
2020/12/18 23:46:39;;;;;;;4.60;3.17;;;;;;;19.24;58.00;102133.59;5008246;28;20069;-68
2020/12/18 23:49:05;;;;;;;3.83;2.45;;;;;;;19.26;57.65;102134.50;5006370;28;20037;-67
2020/12/18 23:51:38;;;;;;;3.92;2.70;;;;;;;19.24;58.00;102125.56;5007415;28;20046;-67
2020/12/18 23:54:04;;;;;;;4.28;3.03;;;;;;;19.22;57.89;102130.06;5008890;28;20045;-67
2020/12/18 23:56:31;;;;;;;4.60;3.08;;;;;;;19.21;58.03;102137.19;5011911;28;20053;-67
2020/12/18 23:58:57;;;;;;;5.50;3.13;;;;;;;19.21;58.00;102136.28;4994653;28;20030;-67
